createdAt,value
2023-03-01T00:01:47.026Z,36.88
2023-03-01T00:04:13.334Z,37.12
2023-03-01T00:06:39.646Z,37.90
2023-03-01T00:09:05.974Z,37.15
2023-03-01T00:11:32.267Z,37.78
2023-03-01T00:13:58.556Z,38.28
2023-03-01T00:16:24.934Z,37.58
2023-03-01T00:18:51.229Z,38.61
2023-03-01T00:21:17.548Z,37.51
2023-03-01T00:23:43.861Z,38.16
2023-03-01T00:26:10.173Z,38.13
2023-03-01T00:28:36.469Z,37.84
2023-03-01T00:31:02.865Z,37.94
2023-03-01T00:33:29.201Z,37.84
2023-03-01T00:35:55.532Z,37.96
2023-03-01T00:38:21.899Z,39.12
2023-03-01T00:40:48.177Z,38.30
2023-03-01T00:43:14.474Z,37.91
2023-03-01T00:45:40.780Z,37.98
2023-03-01T00:48:07.090Z,38.11
2023-03-01T00:50:33.386Z,38.41
2023-03-01T00:52:59.709Z,37.84
2023-03-01T00:55:25.994Z,37.02
2023-03-01T00:57:52.292Z,36.97
2023-03-01T01:00:18.618Z,38.09
2023-03-01T01:02:44.964Z,37.71
2023-03-01T01:05:11.334Z,36.75
2023-03-01T01:07:37.637Z,38.44
2023-03-01T01:10:03.925Z,38.87
2023-03-01T01:12:30.222Z,38.88
2023-03-01T01:14:56.539Z,39.40
2023-03-01T01:17:22.832Z,37.68
2023-03-01T01:19:49.128Z,35.96
2023-03-01T01:22:15.426Z,36.01
2023-03-01T01:24:41.747Z,37.72
2023-03-01T01:27:08.034Z,37.46
2023-03-01T01:29:34.350Z,37.28
2023-03-01T01:32:00.747Z,36.29
2023-03-01T01:34:27.081Z,37.25
2023-03-01T01:36:53.383Z,36.75
2023-03-01T01:39:19.659Z,37.51
2023-03-01T01:41:45.959Z,35.84
2023-03-01T01:44:12.310Z,36.36
2023-03-01T01:46:38.656Z,36.24
2023-03-01T01:49:04.983Z,35.87
2023-03-01T01:51:31.285Z,36.70
2023-03-01T01:53:57.561Z,36.61
2023-03-01T01:56:23.851Z,36.76
2023-03-01T01:58:50.157Z,35.59
2023-03-01T02:01:16.449Z,37.24
2023-03-01T02:03:42.868Z,36.29
2023-03-01T02:06:09.210Z,36.81
2023-03-01T02:08:35.508Z,37.57
2023-03-01T02:11:01.804Z,38.26
2023-03-01T02:13:28.114Z,36.84
2023-03-01T02:15:54.421Z,36.88
2023-03-01T02:18:20.761Z,35.96
2023-03-01T02:20:47.073Z,36.08
2023-03-01T02:23:13.378Z,37.10
2023-03-01T02:25:39.669Z,37.17
2023-03-01T02:28:05.995Z,36.56
2023-03-01T02:30:32.317Z,35.68
2023-03-01T02:32:58.631Z,36.95
2023-03-01T02:35:24.949Z,37.29
2023-03-01T02:37:51.286Z,37.40
2023-03-01T02:40:17.584Z,36.66
2023-03-01T02:42:43.888Z,36.61
2023-03-01T02:45:10.176Z,36.83
2023-03-01T02:47:36.473Z,37.16
2023-03-01T02:50:02.838Z,36.72
2023-03-01T02:52:29.139Z,37.26
2023-03-01T02:54:55.429Z,37.86
2023-03-01T02:57:21.750Z,37.94
2023-03-01T02:59:48.039Z,37.91
2023-03-01T03:02:14.328Z,37.99
2023-03-01T03:04:40.639Z,38.83
2023-03-01T03:07:06.928Z,39.62
2023-03-01T03:09:33.223Z,39.20
2023-03-01T03:11:59.545Z,38.64
2023-03-01T03:14:25.841Z,38.05
2023-03-01T03:16:52.123Z,39.51
2023-03-01T03:19:18.465Z,39.72
2023-03-01T03:21:44.757Z,38.95
2023-03-01T03:24:11.049Z,39.08
2023-03-01T03:26:37.357Z,39.47
2023-03-01T03:29:03.655Z,39.37
2023-03-01T03:31:30.096Z,39.82
2023-03-01T03:33:56.424Z,39.17
2023-03-01T03:36:22.698Z,39.46
2023-03-01T03:38:48.984Z,40.13
2023-03-01T03:41:15.333Z,40.43
2023-03-01T03:43:41.633Z,39.80
2023-03-01T03:46:08.082Z,39.79
2023-03-01T03:48:34.438Z,41.09
2023-03-01T03:51:00.740Z,40.80
2023-03-01T03:53:27.046Z,41.17
2023-03-01T03:55:53.469Z,41.49
2023-03-01T03:58:19.753Z,41.68
2023-03-01T04:00:46.041Z,41.68
2023-03-01T04:03:12.357Z,41.97
2023-03-01T04:05:38.660Z,41.34
2023-03-01T04:08:04.948Z,40.60
2023-03-01T04:10:31.255Z,39.81
2023-03-01T04:12:57.557Z,40.56
2023-03-01T04:15:23.848Z,40.51
2023-03-01T04:17:50.177Z,40.15
2023-03-01T04:20:16.470Z,40.49
2023-03-01T04:22:42.777Z,39.81
2023-03-01T04:25:09.110Z,40.95
2023-03-01T04:27:35.423Z,40.48
2023-03-01T04:30:01.726Z,40.22
2023-03-01T04:32:28.052Z,40.79
2023-03-01T04:34:54.362Z,40.84
2023-03-01T04:37:20.661Z,39.85
2023-03-01T04:39:46.979Z,40.13
2023-03-01T04:42:13.284Z,38.97
2023-03-01T04:44:39.583Z,39.61
2023-03-01T04:47:05.902Z,40.78
2023-03-01T04:49:32.198Z,40.16
2023-03-01T04:51:58.498Z,40.60
2023-03-01T04:54:24.807Z,42.39
2023-03-01T04:56:51.096Z,40.72
2023-03-01T04:59:17.398Z,40.90
2023-03-01T05:01:43.751Z,41.38
2023-03-01T05:04:10.064Z,41.34
2023-03-01T05:06:36.386Z,40.62
2023-03-01T05:09:02.688Z,40.57
2023-03-01T05:11:28.999Z,40.81
2023-03-01T05:13:55.293Z,41.01
2023-03-01T05:16:21.607Z,40.53
2023-03-01T05:18:47.895Z,40.23
2023-03-01T05:21:14.182Z,41.23
2023-03-01T05:23:40.526Z,40.89
2023-03-01T05:26:09.458Z,41.68
2023-03-01T05:28:37.815Z,40.73
2023-03-01T05:31:04.230Z,41.11
2023-03-01T05:33:30.557Z,42.08
2023-03-01T05:35:56.876Z,40.68
2023-03-01T05:38:23.205Z,40.23
2023-03-01T05:40:49.501Z,40.86
2023-03-01T05:43:15.797Z,42.42
2023-03-01T05:45:42.156Z,41.16
2023-03-01T05:48:08.477Z,41.32
2023-03-01T05:50:34.762Z,41.09
2023-03-01T05:53:01.108Z,41.60
2023-03-01T05:55:29.026Z,42.27
2023-03-01T05:57:55.498Z,42.19
2023-03-01T06:00:21.813Z,41.07
2023-03-01T06:02:48.121Z,42.75
2023-03-01T06:05:14.466Z,41.97
2023-03-01T06:07:40.881Z,42.82
2023-03-01T06:10:07.170Z,42.13
2023-03-01T06:12:33.472Z,41.76
2023-03-01T06:14:59.780Z,41.60
2023-03-01T06:17:26.070Z,42.77
2023-03-01T06:19:52.369Z,42.05
2023-03-01T06:22:18.692Z,41.90
2023-03-01T06:24:44.991Z,41.03
2023-03-01T06:27:11.308Z,41.95
2023-03-01T06:29:37.605Z,41.11
2023-03-01T06:32:03.945Z,41.15
2023-03-01T06:34:30.307Z,42.21
2023-03-01T06:36:56.627Z,41.20
2023-03-01T06:39:22.913Z,41.25
2023-03-01T06:41:49.205Z,41.16
2023-03-01T06:44:15.510Z,41.00
2023-03-01T06:46:41.912Z,40.62
2023-03-01T06:49:08.269Z,42.86
2023-03-01T06:51:34.586Z,42.24
2023-03-01T06:54:01.819Z,42.24
2023-03-01T06:56:28.153Z,42.56
2023-03-01T06:58:54.454Z,42.71
2023-03-01T07:01:20.767Z,42.88
2023-03-01T07:03:47.139Z,42.97
2023-03-01T07:06:13.458Z,42.97
2023-03-01T07:08:39.783Z,43.00
2023-03-01T07:11:06.085Z,43.22
2023-03-01T07:13:32.429Z,42.65
2023-03-01T07:15:58.741Z,43.08
2023-03-01T07:18:25.063Z,42.31
2023-03-01T07:20:51.395Z,42.57
2023-03-01T07:23:17.709Z,43.25
2023-03-01T07:25:44.022Z,42.83
2023-03-01T07:28:10.354Z,41.38
2023-03-01T07:30:36.653Z,42.58
2023-03-01T07:33:03.147Z,42.73
2023-03-01T07:35:29.576Z,42.87
2023-03-01T07:37:55.900Z,43.00
2023-03-01T07:40:22.194Z,44.77
2023-03-01T07:42:48.524Z,44.53
2023-03-01T07:45:14.829Z,44.57
2023-03-01T07:47:41.196Z,43.38
2023-03-01T07:50:07.504Z,44.97
2023-03-01T07:52:33.793Z,43.54
2023-03-01T07:55:00.120Z,42.44
2023-03-01T07:57:26.567Z,43.81
2023-03-01T07:59:52.873Z,42.93
2023-03-01T08:02:19.173Z,43.11
2023-03-01T08:04:45.489Z,42.50
2023-03-01T08:07:11.785Z,42.47
2023-03-01T08:09:38.092Z,44.00
2023-03-01T08:12:04.416Z,43.14
2023-03-01T08:14:30.709Z,43.84
2023-03-01T08:16:57.051Z,44.13
2023-03-01T08:19:23.441Z,44.14
2023-03-01T08:21:49.734Z,43.82
2023-03-01T08:24:16.017Z,43.74
2023-03-01T08:26:42.365Z,42.90
2023-03-01T08:29:08.656Z,44.50
2023-03-01T08:31:34.976Z,43.58
2023-03-01T08:34:01.336Z,44.94
2023-03-01T08:36:27.624Z,44.79
2023-03-01T08:38:53.933Z,43.27
2023-03-01T08:41:20.245Z,43.79
2023-03-01T08:43:46.575Z,43.05
2023-03-01T08:46:12.946Z,43.31
2023-03-01T08:48:39.332Z,43.89
2023-03-01T08:51:05.628Z,45.36
2023-03-01T08:53:31.929Z,44.32
2023-03-01T08:55:58.244Z,43.36
2023-03-01T08:58:24.541Z,42.76
2023-03-01T09:00:50.848Z,44.44
2023-03-01T09:03:17.154Z,44.02
2023-03-01T09:05:43.446Z,44.55
2023-03-01T09:08:09.848Z,43.82
2023-03-01T09:10:36.186Z,44.86
2023-03-01T09:13:02.659Z,45.58
2023-03-01T09:15:28.983Z,44.53
2023-03-01T09:17:55.291Z,45.20
2023-03-01T09:20:21.615Z,44.10
2023-03-01T09:22:47.917Z,42.84
2023-03-01T09:25:14.264Z,42.17
2023-03-01T09:27:40.567Z,44.13
2023-03-01T09:30:06.884Z,42.79
2023-03-01T09:32:33.216Z,43.40
2023-03-01T09:34:59.552Z,42.77
2023-03-01T09:37:25.850Z,42.95
2023-03-01T09:39:52.186Z,44.44
2023-03-01T09:42:18.502Z,44.75
2023-03-01T09:44:44.796Z,44.33
2023-03-01T09:47:11.147Z,44.37
2023-03-01T09:49:37.466Z,45.01
2023-03-01T09:52:03.767Z,42.98
2023-03-01T09:54:30.111Z,41.97
2023-03-01T09:56:56.432Z,42.59
2023-03-01T09:59:23.342Z,43.81
2023-03-01T10:01:49.718Z,43.46
2023-03-01T10:04:16.097Z,44.64
2023-03-01T10:06:42.460Z,44.41
2023-03-01T10:09:08.901Z,44.47
2023-03-01T10:11:35.324Z,44.44
2023-03-01T10:14:01.644Z,45.99
2023-03-01T10:16:27.949Z,44.07
2023-03-01T10:18:54.233Z,43.83
2023-03-01T10:21:20.528Z,44.93
2023-03-01T10:23:46.850Z,43.38
2023-03-01T10:26:13.286Z,43.64
2023-03-01T10:28:39.598Z,45.83
2023-03-01T10:31:05.992Z,43.58
2023-03-01T10:33:32.747Z,44.18
2023-03-01T10:35:59.120Z,45.52
2023-03-01T10:38:25.512Z,45.86
2023-03-01T10:40:51.968Z,44.29
2023-03-01T10:43:18.628Z,44.26
2023-03-01T10:45:44.939Z,45.55
2023-03-01T10:48:11.250Z,44.43
2023-03-01T10:50:37.558Z,44.91
2023-03-01T10:53:03.942Z,43.61
2023-03-01T10:55:30.227Z,44.24
2023-03-01T10:57:56.530Z,44.35
2023-03-01T11:00:22.841Z,44.29
2023-03-01T11:02:49.140Z,44.11
2023-03-01T11:05:15.432Z,42.58
2023-03-01T11:07:41.779Z,42.80
2023-03-01T11:10:08.074Z,43.24
2023-03-01T11:12:34.368Z,43.91
2023-03-01T11:15:00.701Z,44.69
2023-03-01T11:17:27.260Z,44.19
2023-03-01T11:20:02.171Z,43.89
2023-03-01T11:22:29.059Z,43.82
2023-03-01T11:25:08.865Z,44.60
2023-03-01T11:27:36.005Z,42.98
2023-03-01T11:30:03.464Z,44.04
2023-03-01T11:32:29.835Z,43.21
2023-03-01T11:34:56.238Z,44.09
2023-03-01T11:37:22.521Z,43.57
2023-03-01T11:39:48.834Z,43.83
2023-03-01T11:42:19.090Z,44.15
2023-03-01T11:44:45.883Z,43.58
2023-03-01T11:47:12.297Z,44.53
2023-03-01T11:49:38.738Z,43.08
2023-03-01T11:52:05.059Z,43.38
2023-03-01T11:54:31.392Z,42.63
2023-03-01T11:56:57.716Z,42.74
2023-03-01T11:59:24.011Z,42.55
2023-03-01T12:01:50.377Z,42.84
2023-03-01T12:04:16.729Z,42.45
2023-03-01T12:06:43.046Z,42.36
2023-03-01T12:09:09.363Z,42.05
2023-03-01T12:11:35.677Z,41.93
2023-03-01T12:14:02.016Z,42.22
2023-03-01T12:16:38.395Z,42.40
2023-03-01T12:19:05.819Z,40.82
2023-03-01T12:21:32.499Z,41.36
2023-03-01T12:23:58.940Z,41.74
2023-03-01T12:26:25.259Z,41.86
2023-03-01T12:28:51.572Z,41.33
2023-03-01T12:31:17.927Z,40.96
2023-03-01T12:33:44.286Z,41.83
2023-03-01T12:36:10.583Z,40.46
2023-03-01T12:38:36.886Z,39.74
2023-03-01T12:41:04.359Z,40.38
2023-03-01T12:43:30.680Z,40.99
2023-03-01T12:45:57.017Z,43.22
2023-03-01T12:48:23.805Z,42.08
2023-03-01T12:50:50.105Z,42.65
2023-03-01T12:53:16.393Z,41.05
2023-03-01T12:55:42.708Z,41.27
2023-03-01T12:58:09.002Z,41.14
2023-03-01T13:00:35.298Z,41.90
2023-03-01T13:03:01.616Z,41.15
2023-03-01T13:05:27.918Z,41.35
2023-03-01T13:07:54.223Z,41.19
2023-03-01T13:10:20.533Z,39.87
2023-03-01T13:12:46.843Z,38.99
2023-03-01T13:15:13.164Z,39.91
2023-03-01T13:17:39.484Z,40.91
2023-03-01T13:20:05.895Z,41.04
2023-03-01T13:22:32.203Z,41.06
2023-03-01T13:24:58.514Z,41.37
2023-03-01T13:27:24.808Z,40.55
2023-03-01T13:29:51.228Z,40.01
2023-03-01T13:32:17.667Z,40.87
2023-03-01T13:34:43.985Z,40.90
2023-03-01T13:37:10.276Z,40.87
2023-03-01T13:39:36.631Z,40.96
2023-03-01T13:42:02.946Z,40.64
2023-03-01T13:44:29.243Z,42.64
2023-03-01T13:46:55.671Z,42.12
2023-03-01T13:49:21.991Z,40.56
2023-03-01T13:51:48.287Z,40.57
2023-03-01T13:54:14.599Z,40.43
2023-03-01T13:56:40.899Z,40.04
2023-03-01T13:59:07.197Z,40.51
2023-03-01T14:01:33.848Z,40.61
2023-03-01T14:04:00.574Z,39.50
2023-03-01T14:06:26.971Z,38.21
2023-03-01T14:08:53.355Z,37.98
2023-03-01T14:11:19.650Z,39.09
2023-03-01T14:13:45.964Z,38.28
2023-03-01T14:16:12.375Z,38.29
2023-03-01T14:18:38.704Z,38.55
2023-03-01T14:21:05.003Z,37.79
2023-03-01T14:23:31.306Z,39.29
2023-03-01T14:25:57.599Z,39.03
2023-03-01T14:28:23.915Z,39.06
2023-03-01T14:30:50.258Z,38.94
2023-03-01T14:33:16.589Z,39.01
2023-03-01T14:35:42.944Z,38.83
2023-03-01T14:38:09.326Z,37.83
2023-03-01T14:40:35.638Z,38.05
2023-03-01T14:43:01.925Z,38.50
2023-03-01T14:45:28.243Z,38.32
2023-03-01T14:47:54.565Z,38.14
2023-03-01T14:50:20.862Z,38.21
2023-03-01T14:52:47.244Z,38.28
2023-03-01T14:55:13.554Z,37.33
2023-03-01T14:57:39.870Z,38.76
2023-03-01T15:00:06.252Z,37.88
2023-03-01T15:02:32.582Z,37.46
2023-03-01T15:04:58.882Z,37.86
2023-03-01T15:07:25.212Z,37.94
2023-03-01T15:09:51.508Z,38.50
2023-03-01T15:12:17.808Z,37.23
2023-03-01T15:14:49.454Z,38.50
2023-03-01T15:17:18.378Z,37.81
2023-03-01T15:19:44.685Z,38.46
2023-03-01T15:22:10.987Z,38.01
2023-03-01T15:24:37.282Z,36.95
2023-03-01T15:27:03.572Z,38.17
2023-03-01T15:29:29.884Z,37.07
2023-03-01T15:31:56.212Z,37.04
2023-03-01T15:34:22.535Z,36.38
2023-03-01T15:36:48.834Z,35.77
2023-03-01T15:39:15.130Z,36.63
2023-03-01T15:41:41.460Z,37.50
2023-03-01T15:44:07.760Z,36.41
2023-03-01T15:46:34.454Z,35.87
2023-03-01T15:49:00.994Z,36.85
2023-03-01T15:51:27.294Z,37.75
2023-03-01T15:53:54.783Z,38.41
2023-03-01T15:56:21.252Z,35.73
2023-03-01T15:58:47.556Z,36.09
2023-03-01T16:01:13.965Z,35.20
2023-03-01T16:03:40.310Z,35.97
2023-03-01T16:06:06.604Z,36.51
2023-03-01T16:08:32.895Z,36.53
2023-03-01T16:10:59.205Z,35.54
2023-03-01T16:13:25.781Z,35.80
2023-03-01T16:15:52.855Z,36.92
2023-03-01T16:18:19.207Z,36.31
2023-03-01T16:20:45.512Z,37.21
2023-03-01T16:23:11.804Z,36.52
2023-03-01T16:25:38.109Z,36.68
2023-03-01T16:28:04.427Z,36.32
2023-03-01T16:30:30.742Z,36.09
2023-03-01T16:32:57.051Z,34.96
2023-03-01T16:35:23.492Z,35.48
2023-03-01T16:37:49.827Z,35.47
2023-03-01T16:40:16.150Z,36.65
2023-03-01T16:42:42.460Z,36.74
2023-03-01T16:45:18.386Z,36.59
2023-03-01T16:47:49.617Z,35.92
2023-03-01T16:50:15.905Z,36.05
2023-03-01T16:52:42.200Z,35.70
2023-03-01T16:55:08.529Z,35.74
2023-03-01T16:57:34.827Z,35.72
2023-03-01T17:00:01.149Z,35.80
2023-03-01T17:02:27.529Z,37.64
2023-03-01T17:04:53.827Z,36.34
2023-03-01T17:07:20.133Z,38.15
2023-03-01T17:09:46.453Z,36.99
2023-03-01T17:12:12.750Z,37.41
2023-03-01T17:14:39.074Z,37.00
2023-03-01T17:17:05.381Z,36.31
2023-03-01T17:19:31.679Z,36.06
2023-03-01T17:21:57.974Z,36.46
2023-03-01T17:24:24.292Z,35.90
2023-03-01T17:26:50.606Z,35.10
2023-03-01T17:29:16.927Z,37.27
2023-03-01T17:31:43.271Z,36.78
2023-03-01T17:34:09.586Z,36.16
2023-03-01T17:36:35.869Z,38.24
2023-03-01T17:39:02.179Z,37.71
2023-03-01T17:41:28.488Z,37.04
2023-03-01T17:43:54.794Z,36.86
2023-03-01T17:46:21.193Z,36.05
2023-03-01T17:48:47.554Z,37.47
2023-03-01T17:51:13.833Z,38.76
2023-03-01T17:53:40.194Z,36.98
2023-03-01T17:56:06.483Z,37.14
2023-03-01T17:58:32.781Z,37.96
2023-03-01T18:00:59.125Z,37.64
2023-03-01T18:03:25.451Z,36.93
2023-03-01T18:05:51.773Z,36.73
2023-03-01T18:08:18.126Z,38.32
2023-03-01T18:10:44.438Z,38.61
2023-03-01T18:13:10.732Z,38.48
2023-03-01T18:15:37.048Z,38.17
2023-03-01T18:18:03.361Z,38.19
2023-03-01T18:20:29.636Z,38.86
2023-03-01T18:22:55.945Z,39.09
2023-03-01T18:25:22.263Z,40.71
2023-03-01T18:27:48.577Z,39.62
2023-03-01T18:30:14.904Z,41.43
2023-03-01T18:32:41.207Z,39.31
2023-03-01T18:35:07.522Z,38.66
2023-03-01T18:37:33.863Z,38.54
2023-03-01T18:40:00.177Z,38.11
2023-03-01T18:42:26.474Z,38.56
2023-03-01T18:44:52.786Z,37.72
2023-03-01T18:47:19.093Z,38.13
2023-03-01T18:49:45.404Z,37.74
2023-03-01T18:52:11.719Z,38.09
2023-03-01T18:54:38.011Z,38.64
2023-03-01T18:57:04.299Z,38.17
2023-03-01T18:59:30.609Z,38.82
2023-03-01T19:01:56.963Z,38.25
2023-03-01T19:04:23.307Z,37.86
2023-03-01T19:06:49.621Z,38.53
2023-03-01T19:09:15.923Z,39.30
2023-03-01T19:11:42.242Z,38.74
2023-03-01T19:14:08.612Z,39.68
2023-03-01T19:16:35.348Z,39.15
2023-03-01T19:19:01.736Z,39.37
2023-03-01T19:21:28.067Z,40.03
2023-03-01T19:23:54.394Z,40.25
2023-03-01T19:26:20.695Z,39.90
2023-03-01T19:28:47.014Z,39.33
2023-03-01T19:31:13.313Z,39.27
2023-03-01T19:33:39.600Z,39.55
2023-03-01T19:36:05.941Z,39.78
2023-03-01T19:38:32.251Z,40.04
2023-03-01T19:40:58.549Z,40.43
2023-03-01T19:43:24.852Z,39.67
2023-03-01T19:45:51.146Z,39.90
2023-03-01T19:48:17.441Z,39.62
2023-03-01T19:50:43.750Z,39.92
2023-03-01T19:53:10.083Z,40.80
2023-03-01T19:55:36.383Z,40.15
2023-03-01T19:58:02.702Z,39.86
2023-03-01T20:00:28.996Z,39.93
2023-03-01T20:02:55.353Z,39.61
2023-03-01T20:05:21.709Z,38.88
2023-03-01T20:07:48.008Z,39.97
2023-03-01T20:10:14.326Z,39.77
2023-03-01T20:12:40.626Z,39.46
2023-03-01T20:15:06.918Z,39.44
2023-03-01T20:17:33.211Z,39.14
2023-03-01T20:19:59.647Z,39.92
2023-03-01T20:22:25.958Z,39.76
2023-03-01T20:24:52.252Z,40.39
2023-03-01T20:27:18.709Z,40.52
2023-03-01T20:29:45.101Z,40.35
2023-03-01T20:32:11.437Z,39.29
2023-03-01T20:34:37.773Z,38.97
2023-03-01T20:37:04.066Z,39.65
2023-03-01T20:39:30.364Z,39.16
2023-03-01T20:41:56.684Z,40.01
2023-03-01T20:44:22.974Z,39.33
2023-03-01T20:46:49.385Z,40.33
2023-03-01T20:49:15.713Z,39.73
2023-03-01T20:51:42.025Z,39.56
2023-03-01T20:54:08.322Z,40.50
2023-03-01T20:56:35.065Z,40.12
2023-03-01T20:59:01.645Z,40.26
2023-03-01T21:01:27.942Z,41.13
2023-03-01T21:03:54.315Z,39.70
2023-03-01T21:06:20.658Z,40.56
2023-03-01T21:08:47.070Z,39.48
2023-03-01T21:11:13.379Z,39.67
2023-03-01T21:13:39.664Z,40.89
2023-03-01T21:16:05.971Z,40.78
2023-03-01T21:18:32.324Z,40.98
2023-03-01T21:20:58.631Z,41.49
2023-03-01T21:23:24.920Z,41.23
2023-03-01T21:25:51.278Z,40.83
2023-03-01T21:28:17.590Z,40.46
2023-03-01T21:30:43.905Z,41.23
2023-03-01T21:33:10.221Z,40.94
2023-03-01T21:35:36.555Z,41.59
2023-03-01T21:38:02.885Z,40.92
2023-03-01T21:40:29.186Z,42.23
2023-03-01T21:42:55.478Z,41.46
2023-03-01T21:45:21.772Z,41.29
2023-03-01T21:47:48.189Z,42.42
2023-03-01T21:50:14.478Z,41.36
2023-03-01T21:52:40.779Z,41.82
2023-03-01T21:55:07.103Z,42.65
2023-03-01T21:57:33.418Z,42.51
2023-03-01T21:59:59.714Z,41.33
2023-03-01T22:02:26.022Z,42.01
2023-03-01T22:04:52.302Z,41.19
2023-03-01T22:07:18.598Z,41.32
2023-03-01T22:09:44.910Z,41.58
2023-03-01T22:12:11.204Z,40.85
2023-03-01T22:14:37.495Z,41.05
2023-03-01T22:17:03.941Z,41.44
2023-03-01T22:19:30.303Z,41.52
2023-03-01T22:21:56.613Z,41.75
2023-03-01T22:24:22.936Z,42.00
2023-03-01T22:26:49.265Z,42.71
2023-03-01T22:29:15.570Z,42.22
2023-03-01T22:31:41.983Z,42.78
2023-03-01T22:34:08.281Z,41.74
2023-03-01T22:36:34.679Z,42.69
2023-03-01T22:39:01.069Z,42.08
2023-03-01T22:41:27.377Z,42.35
2023-03-01T22:43:53.666Z,41.95
2023-03-01T22:46:20.016Z,41.33
2023-03-01T22:48:46.345Z,41.06
2023-03-01T22:51:12.638Z,41.53
2023-03-01T22:53:38.959Z,40.26
2023-03-01T22:56:05.274Z,39.96
2023-03-01T22:58:31.566Z,40.76
2023-03-01T23:00:57.880Z,39.34
2023-03-01T23:03:24.185Z,39.28
2023-03-01T23:05:50.485Z,40.45
2023-03-01T23:08:16.824Z,40.03
2023-03-01T23:10:43.093Z,39.61
2023-03-01T23:13:09.376Z,40.73
2023-03-01T23:15:35.681Z,41.07
2023-03-01T23:18:01.973Z,41.47
2023-03-01T23:20:28.265Z,41.27
2023-03-01T23:22:54.919Z,40.74
2023-03-01T23:25:21.200Z,40.86
2023-03-01T23:27:47.494Z,41.06
2023-03-01T23:30:13.800Z,40.21
2023-03-01T23:32:40.089Z,41.05
2023-03-01T23:35:06.373Z,41.22
2023-03-01T23:37:32.707Z,42.08
2023-03-01T23:39:58.992Z,41.87
2023-03-01T23:42:25.285Z,41.40
2023-03-01T23:44:51.590Z,41.17
2023-03-01T23:47:17.877Z,41.62
2023-03-01T23:49:44.151Z,42.00
2023-03-01T23:52:10.448Z,41.83
2023-03-01T23:54:36.740Z,42.27
2023-03-01T23:57:03.015Z,43.09
2023-03-01T23:59:29.335Z,43.29
